createdAt,value
2019-02-16T00:01:21.193Z,9.17
2019-02-16T00:03:50.326Z,10.40
2019-02-16T00:06:19.590Z,10.50
2019-02-16T00:08:48.728Z,9.80
2019-02-16T00:11:18.027Z,10.20
2019-02-16T00:13:47.113Z,10.03
2019-02-16T00:16:17.332Z,10.47
2019-02-16T00:18:46.444Z,10.57
2019-02-16T00:21:15.813Z,11.17
2019-02-16T00:23:44.872Z,10.47
2019-02-16T00:26:14.143Z,10.50
2019-02-16T00:28:43.351Z,12.37
2019-02-16T00:31:12.515Z,11.20
2019-02-16T00:33:41.708Z,11.93
2019-02-16T00:36:11.861Z,11.97
2019-02-16T00:38:41.282Z,11.33
2019-02-16T00:41:10.352Z,12.13
2019-02-16T00:43:39.392Z,11.97
2019-02-16T00:46:40.432Z,12.00
2019-02-16T00:49:46.812Z,12.63
2019-02-16T00:53:00.801Z,12.17
2019-02-16T00:55:30.000Z,11.87
2019-02-16T00:57:59.312Z,12.60
2019-02-16T01:00:29.454Z,13.03
2019-02-16T01:02:58.549Z,11.97
2019-02-16T01:05:27.981Z,12.00
2019-02-16T01:07:57.158Z,12.53
2019-02-16T01:10:26.585Z,13.43
2019-02-16T01:12:56.046Z,13.20
2019-02-16T01:15:25.114Z,13.40
2019-02-16T01:17:54.511Z,12.57
2019-02-16T01:20:23.806Z,12.80
2019-02-16T01:22:53.929Z,12.57
2019-02-16T01:25:23.234Z,12.87
2019-02-16T01:27:53.874Z,12.93
2019-02-16T01:30:29.547Z,13.40
2019-02-16T01:32:58.941Z,13.00
2019-02-16T01:35:28.175Z,13.20
2019-02-16T01:37:58.216Z,12.90
2019-02-16T01:40:27.387Z,13.80
2019-02-16T01:42:56.565Z,13.83
2019-02-16T01:45:25.753Z,13.50
2019-02-16T01:47:56.010Z,13.40
2019-02-16T01:50:25.277Z,13.40
2019-02-16T01:52:54.634Z,13.07
2019-02-16T01:55:24.094Z,13.47
2019-02-16T01:57:53.939Z,13.93
2019-02-16T02:00:23.131Z,14.10
2019-02-16T02:02:52.335Z,14.10
2019-02-16T02:05:21.615Z,13.83
2019-02-16T02:07:50.839Z,14.40
2019-02-16T02:10:20.091Z,14.53
2019-02-16T02:12:49.230Z,13.93
2019-02-16T02:15:18.527Z,13.87
2019-02-16T02:17:47.767Z,13.83
2019-02-16T02:20:17.153Z,14.57
2019-02-16T02:22:46.246Z,15.40
2019-02-16T02:25:15.956Z,15.03
2019-02-16T02:27:45.183Z,15.53
2019-02-16T02:30:14.851Z,14.17
2019-02-16T02:32:44.048Z,14.27
2019-02-16T02:35:13.294Z,15.37
2019-02-16T02:37:42.799Z,15.37
2019-02-16T02:40:12.091Z,15.60
2019-02-16T02:42:41.414Z,15.53
2019-02-16T02:45:10.950Z,14.80
2019-02-16T02:47:40.176Z,15.23
2019-02-16T02:50:09.411Z,16.50
2019-02-16T02:52:38.955Z,15.17
2019-02-16T02:55:08.200Z,14.87
2019-02-16T02:57:38.308Z,14.40
2019-02-16T03:00:07.999Z,15.67
2019-02-16T03:02:37.275Z,15.13
2019-02-16T03:05:07.681Z,14.37
2019-02-16T03:07:36.960Z,15.30
2019-02-16T03:10:06.496Z,15.43
2019-02-16T03:12:35.724Z,15.33
2019-02-16T03:15:05.377Z,15.33
2019-02-16T03:17:34.568Z,15.20
2019-02-16T03:20:03.932Z,14.97
2019-02-16T03:23:11.805Z,16.10
2019-02-16T03:25:41.881Z,16.07
2019-02-16T03:28:31.208Z,15.57
2019-02-16T03:32:11.951Z,15.93
2019-02-16T03:34:47.074Z,15.67
2019-02-16T03:37:43.220Z,17.10
2019-02-16T03:40:12.744Z,15.60
2019-02-16T03:42:42.101Z,16.33
2019-02-16T03:45:11.355Z,15.93
2019-02-16T03:47:40.535Z,15.87
2019-02-16T03:50:09.947Z,16.90
2019-02-16T03:52:39.257Z,16.30
2019-02-16T03:55:08.631Z,15.77
2019-02-16T03:57:37.892Z,15.03
2019-02-16T04:00:07.987Z,16.00
2019-02-16T04:02:37.227Z,16.33
2019-02-16T04:05:06.769Z,15.73
2019-02-16T04:07:36.155Z,17.30
2019-02-16T04:10:05.776Z,15.50
2019-02-16T04:12:35.000Z,15.77
2019-02-16T04:15:05.150Z,16.70
2019-02-16T04:17:34.405Z,15.93
2019-02-16T04:20:03.737Z,15.93
2019-02-16T04:22:32.981Z,15.47
2019-02-16T04:25:02.178Z,15.90
2019-02-16T04:27:31.602Z,16.83
2019-02-16T04:30:04.274Z,17.00
2019-02-16T04:32:33.425Z,14.70
2019-02-16T04:35:02.632Z,15.33
2019-02-16T04:37:31.856Z,17.50
2019-02-16T04:40:00.988Z,15.40
2019-02-16T04:42:30.214Z,15.70
2019-02-16T04:44:59.494Z,17.10
2019-02-16T04:47:28.579Z,17.07
2019-02-16T04:49:57.741Z,16.33
2019-02-16T04:52:34.241Z,17.57
2019-02-16T04:54:57.551Z,17.13
2019-02-16T04:57:26.823Z,17.50
2019-02-16T04:59:55.943Z,16.90
2019-02-16T05:02:25.093Z,17.90
2019-02-16T05:04:54.333Z,16.73
2019-02-16T05:07:24.087Z,16.37
2019-02-16T05:09:53.187Z,17.53
2019-02-16T05:12:22.351Z,18.40
2019-02-16T05:14:51.627Z,16.73
2019-02-16T05:17:20.750Z,17.13
2019-02-16T05:19:50.382Z,17.20
2019-02-16T05:22:19.471Z,16.60
2019-02-16T05:24:55.713Z,17.43
2019-02-16T05:27:25.095Z,17.27
2019-02-16T05:29:54.135Z,17.90
2019-02-16T05:32:23.268Z,17.17
2019-02-16T05:34:52.326Z,18.07
2019-02-16T05:37:21.407Z,17.83
2019-02-16T05:39:50.661Z,17.57
2019-02-16T05:42:19.733Z,17.83
2019-02-16T05:44:49.220Z,17.93
2019-02-16T05:47:18.624Z,18.00
2019-02-16T05:49:47.673Z,17.73
2019-02-16T05:52:16.991Z,16.37
2019-02-16T05:54:46.058Z,15.53
2019-02-16T05:57:15.296Z,16.97
2019-02-16T05:59:44.363Z,17.43
2019-02-16T06:02:13.504Z,17.40
2019-02-16T06:04:42.787Z,16.30
2019-02-16T06:07:12.193Z,16.40
2019-02-16T06:09:41.339Z,16.67
2019-02-16T06:12:10.530Z,16.90
2019-02-16T06:14:44.210Z,17.97
2019-02-16T06:17:13.415Z,16.70
2019-02-16T06:19:47.067Z,15.73
2019-02-16T06:22:16.075Z,17.30
2019-02-16T06:24:48.294Z,16.30
2019-02-16T06:27:17.338Z,16.93
2019-02-16T06:29:46.494Z,17.47
2019-02-16T06:32:17.279Z,15.73
2019-02-16T06:34:46.539Z,16.33
2019-02-16T06:37:26.640Z,16.90
2019-02-16T06:39:55.701Z,16.27
2019-02-16T06:42:25.177Z,16.47
2019-02-16T06:44:54.712Z,16.27
2019-02-16T06:47:24.507Z,17.20
2019-02-16T06:49:53.711Z,18.20
2019-02-16T06:52:25.630Z,17.13
2019-02-16T06:54:54.669Z,17.23
2019-02-16T06:57:26.914Z,16.43
2019-02-16T07:00:01.616Z,17.10
2019-02-16T07:02:30.942Z,18.00
2019-02-16T07:05:08.583Z,18.40
2019-02-16T07:07:37.964Z,17.40
2019-02-16T07:10:10.276Z,17.40
2019-02-16T07:12:42.230Z,16.97
2019-02-16T07:15:12.478Z,17.37
2019-02-16T07:17:47.142Z,16.63
2019-02-16T07:20:20.112Z,17.23
2019-02-16T07:22:49.538Z,17.20
2019-02-16T07:25:20.009Z,18.47
2019-02-16T07:27:52.003Z,18.50
2019-02-16T07:30:32.868Z,18.40
2019-02-16T07:32:59.867Z,17.97
2019-02-16T07:35:28.810Z,17.90
2019-02-16T07:38:01.135Z,17.00
2019-02-16T07:40:31.733Z,18.13
2019-02-16T07:43:07.607Z,18.33
2019-02-16T07:46:02.659Z,18.83
2019-02-16T07:48:55.337Z,17.80
2019-02-16T07:55:14.193Z,18.43
2019-02-16T07:57:50.092Z,18.80
2019-02-16T08:00:40.162Z,17.70
2019-02-16T08:03:43.691Z,18.37
2019-02-16T08:06:30.367Z,19.27
2019-02-16T08:09:18.734Z,18.60
2019-02-16T08:11:58.709Z,18.30
2019-02-16T08:14:33.933Z,17.70
2019-02-16T08:17:28.236Z,17.70
2019-02-16T08:20:05.741Z,17.00
2019-02-16T08:22:59.808Z,17.83
2019-02-16T08:25:48.024Z,17.50
2019-02-16T08:28:22.251Z,18.40
2019-02-16T08:31:03.403Z,17.40
2019-02-16T08:33:54.926Z,17.70
2019-02-16T08:36:58.556Z,18.10
2019-02-16T08:39:45.448Z,18.73
2019-02-16T08:42:38.586Z,17.80
2019-02-16T08:46:21.404Z,18.70
2019-02-16T08:49:13.999Z,17.23
2019-02-16T08:51:52.272Z,18.50
2019-02-16T08:54:39.139Z,18.50
2019-02-16T08:57:36.235Z,20.60
2019-02-16T09:00:30.337Z,18.97
2019-02-16T09:03:19.472Z,20.83
2019-02-16T09:06:10.714Z,19.10
2019-02-16T09:09:06.507Z,18.77
2019-02-16T09:11:45.177Z,18.47
2019-02-16T09:14:30.525Z,19.60
2019-02-16T09:17:18.944Z,18.67
2019-02-16T09:20:42.526Z,18.90
2019-02-16T09:23:29.482Z,19.47
2019-02-16T09:26:23.386Z,19.73
2019-02-16T09:29:12.045Z,19.20
2019-02-16T09:32:15.330Z,19.53
2019-02-16T09:35:05.571Z,19.20
2019-02-16T09:37:43.213Z,18.77
2019-02-16T09:40:29.921Z,19.40
2019-02-16T09:43:09.661Z,18.50
2019-02-16T09:45:56.286Z,20.97
2019-02-16T09:48:54.441Z,18.67
2019-02-16T09:51:30.454Z,18.80
2019-02-16T09:54:21.568Z,19.53
2019-02-16T09:57:08.522Z,19.93
2019-02-16T09:59:55.155Z,19.23
2019-02-16T10:02:48.991Z,18.80
2019-02-16T10:05:40.611Z,19.93
2019-02-16T10:08:21.939Z,19.37
2019-02-16T10:11:07.603Z,20.57
2019-02-16T10:13:59.047Z,20.00
2019-02-16T10:16:41.979Z,19.63
2019-02-16T10:19:39.542Z,20.07
2019-02-16T10:22:33.417Z,20.57
2019-02-16T10:25:12.571Z,20.07
2019-02-16T10:28:01.006Z,20.97
2019-02-16T10:31:01.542Z,19.73
2019-02-16T10:33:48.662Z,19.40
2019-02-16T10:36:24.843Z,19.20
2019-02-16T10:39:02.087Z,20.33
2019-02-16T10:41:48.999Z,20.27
2019-02-16T10:44:42.878Z,20.30
2019-02-16T10:47:21.023Z,21.47
2019-02-16T10:50:12.093Z,20.33
2019-02-16T10:52:58.610Z,20.33
2019-02-16T10:55:41.370Z,20.27
2019-02-16T10:58:29.612Z,20.43
2019-02-16T11:01:16.383Z,20.87
2019-02-16T11:04:19.577Z,20.13
2019-02-16T11:06:56.505Z,20.00
2019-02-16T11:09:44.672Z,20.70
2019-02-16T11:12:31.796Z,20.80
2019-02-16T11:15:23.174Z,21.70
2019-02-16T11:18:20.974Z,20.60
2019-02-16T11:21:15.167Z,21.60
2019-02-16T11:24:19.332Z,21.07
2019-02-16T11:27:01.211Z,20.67
2019-02-16T11:29:44.005Z,22.00
2019-02-16T11:32:38.230Z,21.40
2019-02-16T11:35:32.830Z,20.77
2019-02-16T11:38:23.299Z,21.10
2019-02-16T11:41:08.921Z,21.17
2019-02-16T11:43:48.944Z,22.07
2019-02-16T11:46:52.153Z,21.30
2019-02-16T11:49:39.312Z,21.70
2019-02-16T11:52:29.479Z,20.53
2019-02-16T11:55:30.833Z,21.97
2019-02-16T11:58:24.941Z,21.23
2019-02-16T12:01:13.060Z,21.30
2019-02-16T12:03:56.651Z,21.43
2019-02-16T12:06:39.120Z,21.83
2019-02-16T12:09:18.248Z,20.93
2019-02-16T12:11:57.420Z,22.00
2019-02-16T12:14:48.479Z,20.47
2019-02-16T12:17:44.041Z,22.47
2019-02-16T12:20:33.377Z,21.57
2019-02-16T12:23:20.477Z,22.23
2019-02-16T12:26:00.518Z,21.65
2019-02-16T12:28:52.039Z,21.85
2019-02-16T12:31:48.097Z,21.65
2019-02-16T12:34:35.008Z,22.33
2019-02-16T12:37:10.741Z,21.83
2019-02-16T12:39:51.782Z,21.00
2019-02-16T12:42:42.948Z,21.83
2019-02-16T12:45:23.323Z,21.57
2019-02-16T12:48:10.486Z,22.00
2019-02-16T12:50:59.432Z,21.33
2019-02-16T12:53:56.178Z,21.60
2019-02-16T12:56:43.108Z,21.68
2019-02-16T12:59:34.757Z,23.23
2019-02-16T13:02:31.781Z,21.07
2019-02-16T13:05:28.798Z,22.25
2019-02-16T13:08:19.689Z,23.55
2019-02-16T13:11:09.814Z,22.90
2019-02-16T13:14:11.071Z,22.67
2019-02-16T13:17:02.512Z,22.90
2019-02-16T13:19:49.395Z,23.15
2019-02-16T13:22:36.394Z,23.67
2019-02-16T13:25:12.143Z,23.20
2019-02-16T13:27:59.090Z,22.42
2019-02-16T13:30:48.092Z,22.97
2019-02-16T13:33:24.382Z,22.13
2019-02-16T13:36:09.106Z,21.73
2019-02-16T13:38:57.417Z,21.80
2019-02-16T13:41:35.902Z,22.35
2019-02-16T13:44:15.592Z,22.53
2019-02-16T13:47:03.417Z,21.67
2019-02-16T13:49:44.082Z,22.13
2019-02-16T13:52:24.794Z,22.40
2019-02-16T13:55:14.419Z,21.35
2019-02-16T13:57:54.123Z,23.27
2019-02-16T14:00:35.151Z,21.40
2019-02-16T14:03:26.171Z,21.07
2019-02-16T14:06:17.403Z,21.12
2019-02-16T14:09:08.950Z,21.25
2019-02-16T14:11:55.578Z,22.30
2019-02-16T14:14:49.748Z,22.73
2019-02-16T14:17:45.116Z,20.92
2019-02-16T14:20:14.289Z,21.33
2019-02-16T14:22:43.544Z,21.40
2019-02-16T14:25:19.257Z,21.57
2019-02-16T14:27:49.438Z,22.32
2019-02-16T14:30:18.542Z,21.37
2019-02-16T14:32:47.813Z,22.70
2019-02-16T14:35:16.910Z,21.42
2019-02-16T14:37:54.042Z,23.10
2019-02-16T14:40:26.813Z,22.77
2019-02-16T14:42:56.046Z,23.57
2019-02-16T14:45:25.152Z,23.70
2019-02-16T14:47:54.753Z,23.67
2019-02-16T14:50:23.808Z,23.20
2019-02-16T14:52:52.866Z,23.17
2019-02-16T14:55:21.809Z,23.07
2019-02-16T14:57:50.907Z,24.30
2019-02-16T15:00:20.472Z,22.23
2019-02-16T15:02:49.738Z,24.15
2019-02-16T15:05:19.014Z,23.35
2019-02-16T15:07:48.226Z,23.27
2019-02-16T15:10:17.497Z,23.45
2019-02-16T15:12:48.128Z,25.05
2019-02-16T15:15:24.702Z,24.77
2019-02-16T15:17:53.905Z,23.50
2019-02-16T15:20:23.126Z,24.77
2019-02-16T15:22:53.044Z,24.67
2019-02-16T15:25:22.157Z,23.80
2019-02-16T15:27:51.619Z,24.37
2019-02-16T15:30:21.173Z,23.90
2019-02-16T15:32:51.359Z,24.30
2019-02-16T15:35:21.520Z,24.70
2019-02-16T15:37:50.730Z,24.77
2019-02-16T15:40:19.854Z,24.45
2019-02-16T15:42:49.054Z,23.50
2019-02-16T15:45:18.437Z,24.23
2019-02-16T15:47:50.570Z,23.32
2019-02-16T15:50:19.646Z,24.98
2019-02-16T15:52:49.441Z,25.70
2019-02-16T15:55:18.597Z,25.10
2019-02-16T15:57:47.766Z,25.62
2019-02-16T16:00:19.332Z,25.90
2019-02-16T16:02:48.574Z,27.05
2019-02-16T16:05:17.645Z,27.77
2019-02-16T16:07:51.169Z,27.40
2019-02-16T16:10:32.933Z,27.20
2019-02-16T16:13:14.997Z,27.50
2019-02-16T16:16:09.353Z,27.40
2019-02-16T16:19:00.527Z,26.62
2019-02-16T16:21:40.461Z,27.90
2019-02-16T16:24:40.601Z,29.12
2019-02-16T16:27:31.721Z,26.62
2019-02-16T16:30:19.877Z,28.27
2019-02-16T16:33:08.301Z,27.27
2019-02-16T16:35:51.046Z,27.85
2019-02-16T16:38:29.266Z,27.25
2019-02-16T16:41:11.901Z,28.80
2019-02-16T16:43:55.905Z,27.48
2019-02-16T16:46:42.834Z,29.00
2019-02-16T16:49:37.356Z,26.52
2019-02-16T16:52:19.865Z,26.60
2019-02-16T16:55:03.517Z,28.37
2019-02-16T16:57:51.544Z,27.45
2019-02-16T17:00:42.144Z,28.73
2019-02-16T17:03:40.795Z,28.05
2019-02-16T17:06:18.051Z,26.90
2019-02-16T17:09:24.314Z,29.67
2019-02-16T17:12:16.345Z,29.20
2019-02-16T17:15:15.541Z,29.00
2019-02-16T17:18:07.007Z,30.17
2019-02-16T17:20:56.669Z,28.95
2019-02-16T17:23:46.756Z,29.77
2019-02-16T17:26:37.774Z,29.65
2019-02-16T17:29:33.187Z,28.50
2019-02-16T17:32:24.883Z,29.27
2019-02-16T17:35:13.016Z,29.40
2019-02-16T17:38:04.005Z,29.57
2019-02-16T17:40:48.345Z,30.20
2019-02-16T17:43:35.584Z,28.65
2019-02-16T17:46:25.182Z,29.35
2019-02-16T17:49:26.020Z,28.17
2019-02-16T17:52:12.931Z,28.83
2019-02-16T17:55:00.326Z,30.12
2019-02-16T17:57:54.806Z,28.95
2019-02-16T18:00:42.168Z,27.47
2019-02-16T18:03:28.990Z,28.20
2019-02-16T18:06:17.442Z,29.03
2019-02-16T18:09:04.895Z,29.17
2019-02-16T18:11:52.176Z,29.83
2019-02-16T18:14:38.907Z,30.37
2019-02-16T18:17:22.598Z,32.60
2019-02-16T18:20:10.874Z,32.37
2019-02-16T18:22:49.261Z,31.73
2019-02-16T18:25:27.914Z,33.03
2019-02-16T18:28:19.628Z,32.40
2019-02-16T18:31:17.015Z,32.60
2019-02-16T18:34:00.809Z,32.20
2019-02-16T18:36:48.096Z,31.37
2019-02-16T18:39:54.442Z,31.43
2019-02-16T18:42:42.623Z,32.03
2019-02-16T18:45:45.767Z,30.90
2019-02-16T18:48:37.177Z,32.53
2019-02-16T18:51:18.452Z,31.13
2019-02-16T18:54:09.671Z,31.90
2019-02-16T18:57:06.393Z,31.53
2019-02-16T18:59:40.942Z,31.87
2019-02-16T19:02:19.506Z,31.83
2019-02-16T19:05:14.566Z,31.17
2019-02-16T19:08:08.434Z,32.37
2019-02-16T19:11:15.118Z,32.93
2019-02-16T19:13:52.319Z,33.17
2019-02-16T19:16:36.862Z,33.00
2019-02-16T19:19:16.536Z,31.50
2019-02-16T19:21:55.317Z,30.90
2019-02-16T19:24:46.315Z,33.07
2019-02-16T19:27:40.318Z,31.23
2019-02-16T19:30:26.959Z,30.83
2019-02-16T19:33:03.807Z,29.70
2019-02-16T19:35:39.938Z,31.27
2019-02-16T19:38:15.552Z,31.17
2019-02-16T19:41:12.803Z,30.90
2019-02-16T19:43:58.238Z,31.33
2019-02-16T19:46:55.348Z,31.57
2019-02-16T19:49:52.603Z,31.27
2019-02-16T19:52:40.575Z,32.70
2019-02-16T19:55:38.026Z,32.53
2019-02-16T19:58:19.860Z,31.77
2019-02-16T20:00:59.237Z,30.23
2019-02-16T20:03:45.747Z,30.90
2019-02-16T20:06:37.930Z,30.27
2019-02-16T20:09:25.390Z,30.80
2019-02-16T20:12:05.053Z,28.90
2019-02-16T20:15:09.790Z,29.27
2019-02-16T20:17:57.176Z,29.00
2019-02-16T20:20:45.359Z,29.23
2019-02-16T20:23:48.942Z,29.33
2019-02-16T20:26:42.931Z,29.60
2019-02-16T20:29:16.688Z,28.70
2019-02-16T20:31:55.560Z,29.63
2019-02-16T20:34:43.755Z,29.50
2019-02-16T20:37:30.362Z,29.80
2019-02-16T20:40:13.045Z,28.93
2019-02-16T20:43:10.185Z,29.53
2019-02-16T20:45:57.840Z,30.70
2019-02-16T20:48:48.743Z,30.63
2019-02-16T20:51:42.186Z,30.80
2019-02-16T20:54:30.874Z,30.73
2019-02-16T20:57:06.589Z,29.70
2019-02-16T20:59:50.248Z,30.80
2019-02-16T21:02:29.644Z,31.77
2019-02-16T21:05:18.818Z,30.60
2019-02-16T21:08:10.518Z,30.97
2019-02-16T21:10:48.506Z,30.67
2019-02-16T21:13:42.765Z,31.33
2019-02-16T21:16:31.745Z,30.10
2019-02-16T21:19:14.324Z,31.20
2019-02-16T21:22:11.363Z,31.33
2019-02-16T21:25:03.367Z,32.17
2019-02-16T21:27:57.415Z,33.00
2019-02-16T21:30:37.233Z,30.00
2019-02-16T21:33:15.620Z,30.40
2019-02-16T21:36:07.056Z,32.03
2019-02-16T21:38:47.111Z,32.30
2019-02-16T21:41:35.936Z,33.70
2019-02-16T21:44:19.798Z,34.37
2019-02-16T21:46:59.417Z,33.63
2019-02-16T21:49:39.321Z,33.13
2019-02-16T21:52:38.658Z,32.47
2019-02-16T21:55:27.049Z,33.90
2019-02-16T21:58:30.400Z,34.80
2019-02-16T22:01:21.673Z,33.50
2019-02-16T22:03:59.548Z,33.93
2019-02-16T22:06:46.334Z,33.43
2019-02-16T22:09:29.531Z,34.37
2019-02-16T22:12:16.674Z,35.83
2019-02-16T22:14:45.974Z,34.60
2019-02-16T22:17:15.031Z,35.97
2019-02-16T22:19:44.046Z,32.23
2019-02-16T22:22:13.142Z,35.90
2019-02-16T22:24:42.151Z,34.80
2019-02-16T22:27:11.216Z,35.30
2019-02-16T22:29:40.288Z,36.83
2019-02-16T22:32:09.436Z,38.23
2019-02-16T22:34:38.833Z,36.17
2019-02-16T22:37:07.982Z,34.73
2019-02-16T22:39:37.098Z,34.47
2019-02-16T22:42:06.481Z,36.17
2019-02-16T22:44:35.797Z,36.60
2019-02-16T22:47:05.112Z,35.27
2019-02-16T22:49:34.277Z,37.33
2019-02-16T22:52:03.756Z,39.07
2019-02-16T22:54:33.177Z,37.70
2019-02-16T22:57:02.466Z,37.80
2019-02-16T22:59:32.097Z,37.03
2019-02-16T23:02:02.777Z,38.83
2019-02-16T23:04:32.211Z,39.87
2019-02-16T23:07:01.843Z,39.37
2019-02-16T23:09:33.127Z,38.40
2019-02-16T23:12:04.097Z,36.77
2019-02-16T23:14:33.575Z,37.47
2019-02-16T23:17:02.720Z,36.50
2019-02-16T23:19:32.147Z,37.10
2019-02-16T23:22:02.222Z,36.67
2019-02-16T23:24:32.166Z,33.30
2019-02-16T23:27:02.071Z,33.23
2019-02-16T23:29:31.361Z,35.07
2019-02-16T23:32:00.669Z,33.87
2019-02-16T23:34:30.114Z,33.77
2019-02-16T23:36:59.378Z,33.60
2019-02-16T23:39:28.657Z,31.30
2019-02-16T23:41:58.102Z,31.93
2019-02-16T23:44:27.299Z,32.30
2019-02-16T23:46:57.397Z,32.50
2019-02-16T23:49:28.601Z,33.53
2019-02-16T23:51:58.795Z,33.33
2019-02-16T23:54:27.866Z,35.27
2019-02-16T23:56:57.394Z,35.07
2019-02-16T23:59:26.706Z,35.47
